createdAt,value
2023-05-06T00:02:22.775Z,120.53
2023-05-06T00:04:51.212Z,59.10
2023-05-06T00:07:19.547Z,78.00
2023-05-06T00:09:47.651Z,66.32
2023-05-06T00:12:15.823Z,60.83
2023-05-06T00:14:43.971Z,65.72
2023-05-06T00:17:12.062Z,79.45
2023-05-06T00:19:41.582Z,62.83
2023-05-06T00:22:09.877Z,67.78
2023-05-06T00:24:37.944Z,74.15
2023-05-06T00:27:06.221Z,65.40
2023-05-06T00:29:34.305Z,53.53
2023-05-06T00:32:02.484Z,59.33
2023-05-06T00:34:30.648Z,30.73
2023-05-06T00:37:00.126Z,38.78
2023-05-06T00:39:28.202Z,37.08
2023-05-06T00:42:02.190Z,41.30
2023-05-06T00:44:30.614Z,34.35
2023-05-06T00:46:59.697Z,29.25
2023-05-06T00:49:27.957Z,66.82
2023-05-06T00:51:57.339Z,63.65
2023-05-06T00:54:27.068Z,131.55
2023-05-06T00:56:55.511Z,100.65
2023-05-06T00:59:23.876Z,84.00
2023-05-06T01:01:53.955Z,117.68
2023-05-06T01:04:22.640Z,144.55
2023-05-06T01:06:57.141Z,70.20
2023-05-06T01:09:31.797Z,45.30
2023-05-06T01:12:03.669Z,47.70
2023-05-06T01:14:37.888Z,48.33
2023-05-06T01:17:08.701Z,38.80
2023-05-06T01:19:43.559Z,54.85
2023-05-06T01:22:12.156Z,31.27
2023-05-06T01:24:42.860Z,44.13
2023-05-06T01:27:12.198Z,67.20
2023-05-06T01:29:42.783Z,91.97
2023-05-06T01:32:39.920Z,111.03
2023-05-06T01:35:16.893Z,82.32
2023-05-06T01:37:49.390Z,124.05
2023-05-06T01:40:19.544Z,206.55
2023-05-06T01:42:50.834Z,284.95
2023-05-06T01:45:19.927Z,356.75
2023-05-06T01:47:48.695Z,284.92
2023-05-06T01:50:17.045Z,287.48
2023-05-06T01:52:45.157Z,135.18
2023-05-06T01:55:13.306Z,533.47
2023-05-06T01:57:42.779Z,242.20
2023-05-06T02:00:11.845Z,322.40
2023-05-06T02:02:40.058Z,278.35
2023-05-06T02:05:09.398Z,135.02
2023-05-06T02:07:37.707Z,103.65
2023-05-06T02:10:06.445Z,213.93
2023-05-06T02:12:34.528Z,183.68
2023-05-06T02:15:04.214Z,84.45
2023-05-06T02:17:32.348Z,192.25
2023-05-06T02:20:00.799Z,137.18
2023-05-06T02:22:28.883Z,118.63
2023-05-06T02:24:56.961Z,153.95
2023-05-06T02:27:25.296Z,132.60
2023-05-06T02:29:53.402Z,122.05
2023-05-06T02:32:22.899Z,122.28
2023-05-06T02:34:51.724Z,268.60
2023-05-06T02:37:19.845Z,233.68
2023-05-06T02:39:47.919Z,131.27
2023-05-06T02:42:16.314Z,250.32
2023-05-06T02:44:44.530Z,126.78
2023-05-06T02:47:12.612Z,157.07
2023-05-06T02:49:42.090Z,134.27
2023-05-06T02:52:10.189Z,76.15
2023-05-06T02:54:38.248Z,60.05
2023-05-06T02:57:06.357Z,76.45
2023-05-06T02:59:34.944Z,43.38
2023-05-06T03:02:02.996Z,36.72
2023-05-06T03:04:31.138Z,77.75
2023-05-06T03:07:01.039Z,46.42
2023-05-06T03:09:29.161Z,24.45
2023-05-06T03:11:57.919Z,18.38
2023-05-06T03:14:26.138Z,21.48
2023-05-06T03:16:54.257Z,27.25
2023-05-06T03:19:22.515Z,31.70
2023-05-06T03:21:50.786Z,14.75
2023-05-06T03:24:21.025Z,11.73
2023-05-06T03:26:49.135Z,10.63
2023-05-06T03:29:17.284Z,13.23
2023-05-06T03:31:45.459Z,14.02
2023-05-06T03:34:13.603Z,12.80
2023-05-06T03:36:41.683Z,13.60
2023-05-06T03:39:10.284Z,17.17
2023-05-06T03:41:39.741Z,12.77
2023-05-06T03:44:07.854Z,19.20
2023-05-06T03:46:36.105Z,32.28
2023-05-06T03:49:04.332Z,52.47
2023-05-06T03:51:32.413Z,34.38
2023-05-06T03:54:00.870Z,29.27
2023-05-06T03:56:29.022Z,53.88
2023-05-06T03:58:58.566Z,53.55
2023-05-06T04:01:26.708Z,53.13
2023-05-06T04:03:54.904Z,73.90
2023-05-06T04:06:23.118Z,26.50
2023-05-06T04:08:51.201Z,33.22
2023-05-06T04:11:19.259Z,31.00
2023-05-06T04:13:47.501Z,37.70
2023-05-06T04:16:17.064Z,38.33
2023-05-06T04:18:46.216Z,32.60
2023-05-06T04:21:14.395Z,36.08
2023-05-06T04:23:42.741Z,32.28
2023-05-06T04:26:10.859Z,37.40
2023-05-06T04:28:38.958Z,41.05
2023-05-06T04:31:08.679Z,32.20
2023-05-06T04:33:38.293Z,26.65
2023-05-06T04:36:07.789Z,23.20
2023-05-06T04:38:37.458Z,28.63
2023-05-06T04:41:06.172Z,34.58
2023-05-06T04:43:34.515Z,24.45
2023-05-06T04:46:02.661Z,23.95
2023-05-06T04:48:30.773Z,26.15
2023-05-06T04:51:00.514Z,24.90
2023-05-06T04:53:28.666Z,19.10
2023-05-06T04:55:56.919Z,19.85
2023-05-06T04:58:25.185Z,33.30
2023-05-06T05:00:53.335Z,20.73
2023-05-06T05:03:21.674Z,20.77
2023-05-06T05:05:49.841Z,19.63
2023-05-06T05:08:19.341Z,20.15
2023-05-06T05:10:47.423Z,24.40
2023-05-06T05:13:15.989Z,24.15
2023-05-06T05:15:44.211Z,20.73
2023-05-06T05:18:12.355Z,26.00
2023-05-06T05:20:40.474Z,24.15
2023-05-06T05:23:08.580Z,20.13
2023-05-06T05:25:38.038Z,23.52
2023-05-06T05:28:06.197Z,22.05
2023-05-06T05:30:35.413Z,23.73
2023-05-06T05:33:03.759Z,27.02
2023-05-06T05:35:32.241Z,23.77
2023-05-06T05:38:00.329Z,25.38
2023-05-06T05:40:28.494Z,25.38
2023-05-06T05:42:57.991Z,23.40
2023-05-06T05:45:26.144Z,24.73
2023-05-06T05:47:54.960Z,24.50
2023-05-06T05:50:23.367Z,24.10
2023-05-06T05:52:51.465Z,23.67
2023-05-06T05:55:19.831Z,23.63
2023-05-06T05:57:47.921Z,21.02
2023-05-06T06:00:18.559Z,23.38
2023-05-06T06:02:46.795Z,23.15
2023-05-06T06:05:14.977Z,24.67
2023-05-06T06:07:43.131Z,21.00
2023-05-06T06:10:13.437Z,21.20
2023-05-06T06:12:41.528Z,22.55
2023-05-06T06:15:11.048Z,23.05
2023-05-06T06:17:41.477Z,22.23
2023-05-06T06:20:11.030Z,20.67
2023-05-06T06:22:39.165Z,21.05
2023-05-06T06:25:08.411Z,21.08
2023-05-06T06:27:36.869Z,21.90
2023-05-06T06:30:05.531Z,22.10
2023-05-06T06:32:33.698Z,22.75
2023-05-06T06:35:03.220Z,18.25
2023-05-06T06:37:31.699Z,21.25
2023-05-06T06:39:59.758Z,21.48
2023-05-06T06:42:27.893Z,23.85
2023-05-06T06:44:56.085Z,20.63
2023-05-06T06:47:24.233Z,20.08
2023-05-06T06:49:52.348Z,26.30
2023-05-06T06:52:22.080Z,19.65
2023-05-06T06:54:50.292Z,19.90
2023-05-06T06:57:18.397Z,22.83
2023-05-06T06:59:47.719Z,18.10
2023-05-06T07:02:15.851Z,20.05
2023-05-06T07:04:43.999Z,18.73
2023-05-06T07:07:12.168Z,17.23
2023-05-06T07:09:42.009Z,18.05
2023-05-06T07:12:10.118Z,17.15
2023-05-06T07:14:38.225Z,22.10
2023-05-06T07:17:06.483Z,18.13
2023-05-06T07:19:34.666Z,20.55
2023-05-06T07:22:03.590Z,17.33
2023-05-06T07:24:31.720Z,18.60
2023-05-06T07:27:02.237Z,16.65
2023-05-06T07:29:30.400Z,18.42
2023-05-06T07:31:58.504Z,19.63
2023-05-06T07:34:26.771Z,17.08
2023-05-06T07:36:54.854Z,15.15
2023-05-06T07:39:22.925Z,16.08
2023-05-06T07:41:51.585Z,16.95
2023-05-06T07:44:21.254Z,16.33
2023-05-06T07:46:49.834Z,14.43
2023-05-06T07:49:18.035Z,15.63
2023-05-06T07:51:46.317Z,15.65
2023-05-06T07:54:14.730Z,15.27
2023-05-06T07:56:44.006Z,14.93
2023-05-06T07:59:12.136Z,17.40
2023-05-06T08:01:41.583Z,14.60
2023-05-06T08:04:09.828Z,12.10
2023-05-06T08:06:37.949Z,16.23
2023-05-06T08:09:06.007Z,13.40
2023-05-06T08:11:34.321Z,14.98
2023-05-06T08:14:02.391Z,13.90
2023-05-06T08:16:30.603Z,15.65
2023-05-06T08:19:00.192Z,15.98
2023-05-06T08:21:28.261Z,13.05
2023-05-06T08:23:56.402Z,11.77
2023-05-06T08:26:24.511Z,16.73
2023-05-06T08:28:52.781Z,16.35
2023-05-06T08:31:20.900Z,12.35
2023-05-06T08:33:49.016Z,13.45
2023-05-06T08:36:18.464Z,14.63
2023-05-06T08:38:50.620Z,15.63
2023-05-06T08:41:20.345Z,12.57
2023-05-06T08:43:50.396Z,13.77
2023-05-06T08:46:19.223Z,13.07
2023-05-06T08:48:47.355Z,14.07
2023-05-06T08:51:16.222Z,16.02
2023-05-06T08:53:48.997Z,15.25
2023-05-06T08:56:17.508Z,13.07
2023-05-06T08:58:46.994Z,14.65
2023-05-06T09:01:16.030Z,10.25
2023-05-06T09:03:45.133Z,12.75
2023-05-06T09:06:13.425Z,14.18
2023-05-06T09:08:41.633Z,9.25
2023-05-06T09:11:23.265Z,10.60
2023-05-06T09:13:51.862Z,16.33
2023-05-06T09:16:30.204Z,9.43
2023-05-06T09:18:58.579Z,8.85
2023-05-06T09:21:33.590Z,12.73
2023-05-06T09:24:02.714Z,11.13
2023-05-06T09:26:32.988Z,9.68
2023-05-06T09:29:01.432Z,9.73
2023-05-06T09:31:30.398Z,12.02
2023-05-06T09:34:00.519Z,11.00
2023-05-06T09:36:30.298Z,8.60
2023-05-06T09:38:58.811Z,8.25
2023-05-06T09:41:27.153Z,8.88
2023-05-06T09:43:57.910Z,11.07
2023-05-06T09:46:27.339Z,9.07
2023-05-06T09:48:57.594Z,6.70
2023-05-06T09:51:26.250Z,5.15
2023-05-06T09:53:55.004Z,8.60
2023-05-06T09:56:23.908Z,8.27
2023-05-06T09:58:53.455Z,7.25
2023-05-06T10:01:35.333Z,6.60
2023-05-06T10:04:09.534Z,4.68
2023-05-06T10:06:39.436Z,6.53
2023-05-06T10:09:08.388Z,10.30
2023-05-06T10:11:37.249Z,7.80
2023-05-06T10:14:06.116Z,6.60
2023-05-06T10:16:37.026Z,7.63
2023-05-06T10:19:06.499Z,5.38
2023-05-06T10:21:35.360Z,6.65
2023-05-06T10:24:09.060Z,5.60
2023-05-06T10:26:38.653Z,6.63
2023-05-06T10:29:10.554Z,4.82
2023-05-06T10:31:56.930Z,7.00
2023-05-06T10:34:26.249Z,7.65
2023-05-06T10:36:57.446Z,8.13
2023-05-06T10:39:26.029Z,7.35
2023-05-06T10:41:54.222Z,6.78
2023-05-06T10:44:54.825Z,5.45
2023-05-06T10:47:24.726Z,4.05
2023-05-06T10:50:21.915Z,6.93
2023-05-06T10:52:52.912Z,4.45
2023-05-06T10:55:28.392Z,4.38
2023-05-06T10:57:57.635Z,5.88
2023-05-06T11:00:26.181Z,4.15
2023-05-06T11:03:07.022Z,3.95
2023-05-06T11:05:48.848Z,8.98
2023-05-06T11:08:22.765Z,4.63
2023-05-06T11:10:51.049Z,10.65
2023-05-06T11:13:24.559Z,4.97
2023-05-06T11:15:52.913Z,5.07
2023-05-06T11:18:44.285Z,3.47
2023-05-06T11:21:37.962Z,2.88
2023-05-06T11:24:10.282Z,3.80
2023-05-06T11:26:38.347Z,4.70
2023-05-06T11:29:07.286Z,3.20
2023-05-06T11:31:40.630Z,5.93
2023-05-06T11:34:12.140Z,4.80
2023-05-06T11:36:58.600Z,4.47
2023-05-06T11:39:30.585Z,7.72
2023-05-06T11:42:03.924Z,4.60
2023-05-06T11:44:33.747Z,4.63
2023-05-06T11:47:03.161Z,4.68
2023-05-06T11:49:36.946Z,5.00
2023-05-06T11:52:05.528Z,2.58
2023-05-06T11:54:36.115Z,2.03
2023-05-06T11:57:04.645Z,2.03
2023-05-06T11:59:34.351Z,4.65
2023-05-06T12:02:03.640Z,2.17
2023-05-06T12:04:40.024Z,4.30
2023-05-06T12:07:08.948Z,3.10
2023-05-06T12:09:37.522Z,5.47
2023-05-06T12:12:06.624Z,5.72
2023-05-06T12:14:34.905Z,3.13
2023-05-06T12:17:03.594Z,6.00
2023-05-06T12:19:33.209Z,6.60
2023-05-06T12:22:19.184Z,4.80
2023-05-06T12:24:47.762Z,5.88
2023-05-06T12:27:16.159Z,2.95
2023-05-06T12:29:53.687Z,3.22
2023-05-06T12:32:21.936Z,4.80
2023-05-06T12:34:50.112Z,2.72
2023-05-06T12:37:29.290Z,3.47
2023-05-06T12:40:08.203Z,3.45
2023-05-06T12:42:36.418Z,3.25
2023-05-06T12:45:15.505Z,3.58
2023-05-06T12:47:53.991Z,5.05
2023-05-06T12:50:40.945Z,3.30
2023-05-06T12:53:13.285Z,5.07
2023-05-06T12:55:42.375Z,6.30
2023-05-06T12:58:17.566Z,2.45
2023-05-06T13:00:45.892Z,4.20
2023-05-06T13:03:14.845Z,3.17
2023-05-06T13:05:43.030Z,2.72
2023-05-06T13:08:12.571Z,2.78
2023-05-06T13:10:41.012Z,2.75
2023-05-06T13:13:09.164Z,3.75
2023-05-06T13:15:38.925Z,3.38
2023-05-06T13:18:07.288Z,4.20
2023-05-06T13:20:35.678Z,3.70
2023-05-06T13:23:04.780Z,5.32
2023-05-06T13:25:34.268Z,2.90
2023-05-06T13:28:02.326Z,4.70
2023-05-06T13:30:31.020Z,4.10
2023-05-06T13:32:59.173Z,5.47
2023-05-06T13:35:27.368Z,2.45
2023-05-06T13:37:55.475Z,4.40
2023-05-06T13:40:23.571Z,2.45
2023-05-06T13:42:53.018Z,3.75
2023-05-06T13:45:21.348Z,1.85
2023-05-06T13:47:49.511Z,2.50
2023-05-06T13:50:17.840Z,1.83
2023-05-06T13:52:46.171Z,2.85
2023-05-06T13:55:14.433Z,3.35
2023-05-06T13:57:42.541Z,3.30
2023-05-06T14:00:13.952Z,2.25
2023-05-06T14:02:42.501Z,3.70
2023-05-06T14:05:11.312Z,2.45
2023-05-06T14:07:40.520Z,3.53
2023-05-06T14:10:10.015Z,1.50
2023-05-06T14:12:38.129Z,3.65
2023-05-06T14:15:07.797Z,5.22
2023-05-06T14:17:37.611Z,4.32
2023-05-06T14:20:06.750Z,2.05
2023-05-06T14:22:34.886Z,3.95
2023-05-06T14:25:03.051Z,4.53
2023-05-06T14:27:31.171Z,4.07
2023-05-06T14:29:59.290Z,4.45
2023-05-06T14:32:28.020Z,4.20
2023-05-06T14:34:57.603Z,8.05
2023-05-06T14:37:25.757Z,5.13
2023-05-06T14:39:54.379Z,4.38
2023-05-06T14:42:22.639Z,4.75
2023-05-06T14:44:50.755Z,4.38
2023-05-06T14:47:19.026Z,7.43
2023-05-06T14:49:47.154Z,5.47
2023-05-06T14:52:16.683Z,2.95
2023-05-06T14:54:46.142Z,3.92
2023-05-06T14:57:14.259Z,3.72
2023-05-06T14:59:42.430Z,4.28
2023-05-06T15:02:11.287Z,5.35
2023-05-06T15:04:39.422Z,5.95
2023-05-06T15:07:07.668Z,7.50
2023-05-06T15:09:39.626Z,3.00
2023-05-06T15:12:08.388Z,3.72
2023-05-06T15:14:36.656Z,3.42
2023-05-06T15:17:04.946Z,2.78
2023-05-06T15:19:33.907Z,4.35
2023-05-06T15:22:02.022Z,2.17
2023-05-06T15:24:30.101Z,2.63
2023-05-06T15:26:59.569Z,4.45
2023-05-06T15:29:27.713Z,4.03
2023-05-06T15:31:55.867Z,3.08
2023-05-06T15:34:24.555Z,3.70
2023-05-06T15:36:54.183Z,4.70
2023-05-06T15:39:22.341Z,4.47
2023-05-06T15:41:50.743Z,7.82
2023-05-06T15:44:20.991Z,5.32
2023-05-06T15:46:49.288Z,1.40
2023-05-06T15:49:47.317Z,7.68
2023-05-06T15:52:05.637Z,2.10
2023-05-06T15:54:37.546Z,2.65
2023-05-06T15:57:07.141Z,4.15
2023-05-06T15:59:36.968Z,3.60
2023-05-06T16:04:36.464Z,2.33
2023-05-06T16:07:04.727Z,4.03
2023-05-06T16:09:32.817Z,4.85
2023-05-06T16:12:01.314Z,4.07
2023-05-06T16:14:29.444Z,8.98
2023-05-06T16:16:59.551Z,4.00
2023-05-06T16:19:27.806Z,4.13
2023-05-06T16:21:56.692Z,4.03
2023-05-06T16:24:24.801Z,2.05
2023-05-06T16:26:52.887Z,3.33
2023-05-06T16:29:21.037Z,5.30
2023-05-06T16:31:49.340Z,4.85
2023-05-06T16:34:18.827Z,6.93
2023-05-06T16:36:47.003Z,2.30
2023-05-06T16:39:15.104Z,2.60
2023-05-06T16:41:43.252Z,5.50
2023-05-06T16:44:11.612Z,7.95
2023-05-06T16:46:39.771Z,4.60
2023-05-06T16:49:07.915Z,5.03
2023-05-06T16:51:37.500Z,3.28
2023-05-06T16:54:05.709Z,14.77
2023-05-06T16:56:48.134Z,3.72
2023-05-06T16:59:21.943Z,3.85
2023-05-06T17:01:50.779Z,5.80
2023-05-06T17:04:18.858Z,1.95
2023-05-06T17:06:48.378Z,3.03
2023-05-06T17:09:16.879Z,3.38
2023-05-06T17:11:45.480Z,6.60
2023-05-06T17:14:14.362Z,4.45
2023-05-06T17:16:43.261Z,6.70
2023-05-06T17:19:12.065Z,5.63
2023-05-06T17:21:40.446Z,13.30
2023-05-06T17:24:10.706Z,6.97
2023-05-06T17:26:40.377Z,6.18
2023-05-06T17:29:08.804Z,8.50
2023-05-06T17:31:37.033Z,11.55
2023-05-06T17:34:05.385Z,4.45
2023-05-06T17:36:33.466Z,6.65
2023-05-06T17:39:06.174Z,7.60
2023-05-06T17:41:35.606Z,7.45
2023-05-06T17:44:03.706Z,9.88
2023-05-06T17:46:33.286Z,8.15
2023-05-06T17:49:01.621Z,4.35
2023-05-06T17:51:29.737Z,13.82
2023-05-06T17:53:58.888Z,7.47
2023-05-06T17:56:27.520Z,6.63
2023-05-06T17:59:01.279Z,6.25
2023-05-06T18:01:29.487Z,79.05
2023-05-06T18:03:58.168Z,38.08
2023-05-06T18:06:27.051Z,104.22
2023-05-06T18:08:55.128Z,36.95
2023-05-06T18:11:23.288Z,24.38
2023-05-06T18:13:51.391Z,8.80
2023-05-06T18:16:20.849Z,10.98
2023-05-06T18:18:48.924Z,8.68
2023-05-06T18:21:17.049Z,8.50
2023-05-06T18:23:45.135Z,9.32
2023-05-06T18:26:14.385Z,8.35
2023-05-06T18:28:43.818Z,7.57
2023-05-06T18:31:11.985Z,7.00
2023-05-06T18:33:41.493Z,10.82
2023-05-06T18:36:11.323Z,9.07
2023-05-06T18:38:39.515Z,8.63
2023-05-06T18:41:07.993Z,7.28
2023-05-06T18:43:36.238Z,8.38
2023-05-06T18:46:05.440Z,5.60
2023-05-06T18:48:33.681Z,7.32
2023-05-06T18:51:13.766Z,8.18
2023-05-06T18:53:42.301Z,7.53
2023-05-06T18:56:11.041Z,6.57
2023-05-06T18:58:40.014Z,7.50
2023-05-06T19:01:09.204Z,8.05
2023-05-06T19:03:37.483Z,8.80
2023-05-06T19:06:08.129Z,7.20
2023-05-06T19:08:38.640Z,8.27
2023-05-06T19:11:06.807Z,5.90
2023-05-06T19:13:34.922Z,9.90
2023-05-06T19:16:03.024Z,9.98
2023-05-06T19:18:31.090Z,7.07
2023-05-06T19:20:59.170Z,6.72
2023-05-06T19:23:27.217Z,8.65
2023-05-06T19:25:56.812Z,9.45
2023-05-06T19:28:24.905Z,11.48
2023-05-06T19:30:53.052Z,6.57
2023-05-06T19:33:21.315Z,7.68
2023-05-06T19:35:49.393Z,5.57
2023-05-06T19:38:17.448Z,10.48
2023-05-06T19:40:45.749Z,8.13
2023-05-06T19:43:15.186Z,7.35
2023-05-06T19:45:43.283Z,11.70
2023-05-06T19:48:12.856Z,9.30
2023-05-06T19:50:41.734Z,8.10
2023-05-06T19:53:09.927Z,11.32
2023-05-06T19:55:38.534Z,13.27
2023-05-06T19:58:06.627Z,5.57
2023-05-06T20:00:36.203Z,9.82
2023-05-06T20:03:04.636Z,9.82
2023-05-06T20:05:32.906Z,6.32
2023-05-06T20:08:00.988Z,7.38
2023-05-06T20:10:29.409Z,6.65
2023-05-06T20:12:58.005Z,11.73
2023-05-06T20:15:26.562Z,4.38
2023-05-06T20:17:56.116Z,6.00
2023-05-06T20:20:24.931Z,7.13
2023-05-06T20:22:52.992Z,10.25
2023-05-06T20:25:21.783Z,4.40
2023-05-06T20:27:50.696Z,5.78
2023-05-06T20:30:18.789Z,5.50
2023-05-06T20:32:49.561Z,5.57
2023-05-06T20:35:20.965Z,4.07
2023-05-06T20:37:49.062Z,7.43
2023-05-06T20:40:17.163Z,4.07
2023-05-06T20:42:45.350Z,5.10
2023-05-06T20:45:13.669Z,6.50
2023-05-06T20:47:41.834Z,5.15
2023-05-06T20:50:16.622Z,5.35
2023-05-06T20:52:47.483Z,8.68
2023-05-06T20:55:15.985Z,6.28
2023-05-06T20:57:44.614Z,5.50
2023-05-06T21:00:13.706Z,4.88
2023-05-06T21:02:42.262Z,5.55
2023-05-06T21:05:11.058Z,7.90
2023-05-06T21:07:39.443Z,5.30
2023-05-06T21:10:10.973Z,5.60
2023-05-06T21:12:39.145Z,7.15
2023-05-06T21:15:08.499Z,6.43
2023-05-06T21:17:36.777Z,4.88
2023-05-06T21:20:06.305Z,4.13
2023-05-06T21:22:34.524Z,6.32
2023-05-06T21:25:02.635Z,5.28
2023-05-06T21:27:32.451Z,5.45
2023-05-06T21:30:00.496Z,7.55
2023-05-06T21:32:32.956Z,6.20
2023-05-06T21:35:02.706Z,5.40
2023-05-06T21:37:31.128Z,6.50
2023-05-06T21:40:00.002Z,5.38
2023-05-06T21:42:28.152Z,6.05
2023-05-06T21:44:57.587Z,10.35
2023-05-06T21:47:26.238Z,9.48
2023-05-06T21:49:54.301Z,10.38
2023-05-06T21:52:22.369Z,5.90
2023-05-06T21:54:50.495Z,8.68
2023-05-06T21:57:18.817Z,8.38
2023-05-06T21:59:46.906Z,12.13
2023-05-06T22:02:16.385Z,7.60
2023-05-06T22:04:44.470Z,5.35
2023-05-06T22:07:12.548Z,6.38
2023-05-06T22:09:40.657Z,7.65
2023-05-06T22:12:11.555Z,7.57
2023-05-06T22:14:41.478Z,4.22
2023-05-06T22:17:10.553Z,8.93
2023-05-06T22:19:40.886Z,8.50
2023-05-06T22:22:09.564Z,4.38
2023-05-06T22:24:37.671Z,5.57
2023-05-06T22:27:05.764Z,6.72
2023-05-06T22:29:35.166Z,4.80
2023-05-06T22:32:03.444Z,10.00
2023-05-06T22:34:31.727Z,9.38
2023-05-06T22:37:01.417Z,4.18
2023-05-06T22:39:29.638Z,4.00
2023-05-06T22:41:57.742Z,5.90
2023-05-06T22:44:25.805Z,6.65
2023-05-06T22:46:54.873Z,7.18
2023-05-06T22:49:23.490Z,5.78
2023-05-06T22:51:51.640Z,5.90
2023-05-06T22:54:21.103Z,8.93
2023-05-06T22:56:49.335Z,7.00
2023-05-06T22:59:17.424Z,6.88
2023-05-06T23:01:45.560Z,5.22
2023-05-06T23:04:13.865Z,6.47
2023-05-06T23:06:42.370Z,8.98
2023-05-06T23:09:10.439Z,5.68
2023-05-06T23:11:40.219Z,7.40
2023-05-06T23:14:08.332Z,7.95
2023-05-06T23:16:36.460Z,7.57
2023-05-06T23:19:04.619Z,8.20
2023-05-06T23:21:32.655Z,6.20
2023-05-06T23:24:00.915Z,7.13
2023-05-06T23:26:29.657Z,9.25
2023-05-06T23:28:59.088Z,7.50
2023-05-06T23:31:27.216Z,5.57
2023-05-06T23:33:55.327Z,7.60
2023-05-06T23:36:23.417Z,6.03
2023-05-06T23:38:51.470Z,6.03
2023-05-06T23:41:19.567Z,12.57
2023-05-06T23:43:47.630Z,5.95
2023-05-06T23:46:17.123Z,10.82
2023-05-06T23:48:45.309Z,5.75
2023-05-06T23:51:13.380Z,8.07
2023-05-06T23:53:41.495Z,6.68
2023-05-06T23:56:09.572Z,11.38
2023-05-06T23:58:37.723Z,9.52
